sensor_id;sensor_type;location;lat;lon;timestamp;P1;durP1;ratioP1;P2;durP2;ratioP2
75554;SDS011;66087;53.126;17.960;2023-06-26T12:12:45;6.30;;;4.10;;
75554;SDS011;66087;53.126;17.960;2023-06-26T12:15:13;7.50;;;4.20;;
75554;SDS011;66087;53.126;17.960;2023-06-26T12:17:55;6.90;;;3.80;;
75554;SDS011;66087;53.126;17.960;2023-06-26T12:20:21;7.30;;;4.00;;
75554;SDS011;66087;53.126;17.960;2023-06-26T12:22:50;9.30;;;4.30;;
75554;SDS011;66087;53.126;17.960;2023-06-26T12:25:24;6.30;;;4.00;;
75554;SDS011;66087;53.126;17.960;2023-06-26T12:27:51;11.30;;;3.70;;
75554;SDS011;66087;53.126;17.960;2023-06-26T12:30:23;6.70;;;3.70;;
75554;SDS011;66087;53.126;17.960;2023-06-26T12:32:49;5.60;;;3.00;;
75554;SDS011;66087;53.126;17.960;2023-06-26T12:35:18;8.70;;;3.80;;
75554;SDS011;66087;53.126;17.960;2023-06-26T12:37:44;5.80;;;3.60;;
75554;SDS011;66087;53.126;17.960;2023-06-26T12:40:17;7.30;;;4.20;;
75554;SDS011;66087;53.126;17.960;2023-06-26T12:43:04;7.30;;;4.50;;
75554;SDS011;66087;53.126;17.960;2023-06-26T12:45:37;7.80;;;3.40;;
75554;SDS011;66087;53.126;17.960;2023-06-26T12:50:43;6.30;;;3.60;;
75554;SDS011;66087;53.126;17.960;2023-06-26T12:53:10;6.30;;;3.20;;
75554;SDS011;66087;53.126;17.960;2023-06-26T12:55:37;6.20;;;3.20;;
75554;SDS011;66087;53.126;17.960;2023-06-26T12:58:03;6.40;;;4.10;;
75554;SDS011;66087;53.126;17.960;2023-06-26T13:00:30;6.40;;;4.40;;
75554;SDS011;66087;53.126;17.960;2023-06-26T13:02:57;8.20;;;4.00;;
75554;SDS011;66087;53.126;17.960;2023-06-26T13:05:24;7.00;;;4.10;;
75554;SDS011;66087;53.126;17.960;2023-06-26T13:07:50;6.60;;;4.10;;
75554;SDS011;66087;53.126;17.960;2023-06-26T13:10:16;6.50;;;4.60;;
75554;SDS011;66087;53.126;17.960;2023-06-26T13:12:42;5.80;;;4.10;;
75554;SDS011;66087;53.126;17.960;2023-06-26T13:15:08;8.30;;;5.00;;
75554;SDS011;66087;53.126;17.960;2023-06-26T13:17:35;6.90;;;4.50;;
75554;SDS011;66087;53.126;17.960;2023-06-26T13:20:01;5.30;;;4.40;;
75554;SDS011;66087;53.126;17.960;2023-06-26T13:22:30;7.10;;;4.60;;
75554;SDS011;66087;53.126;17.960;2023-06-26T13:25:16;6.40;;;4.70;;
75554;SDS011;66087;53.126;17.960;2023-06-26T13:27:42;5.90;;;4.30;;
75554;SDS011;66087;53.126;17.960;2023-06-26T13:30:08;6.00;;;5.10;;
75554;SDS011;66087;53.126;17.960;2023-06-26T13:32:34;7.90;;;4.60;;
75554;SDS011;66087;53.126;17.960;2023-06-26T13:35:00;6.20;;;4.30;;
75554;SDS011;66087;53.126;17.960;2023-06-26T13:37:26;6.00;;;5.00;;
75554;SDS011;66087;53.126;17.960;2023-06-26T13:39:52;6.20;;;5.20;;
75554;SDS011;66087;53.126;17.960;2023-06-26T13:42:19;6.40;;;4.70;;
75554;SDS011;66087;53.126;17.960;2023-06-26T13:44:45;6.00;;;5.00;;
75554;SDS011;66087;53.126;17.960;2023-06-26T13:47:12;5.90;;;5.20;;
75554;SDS011;66087;53.126;17.960;2023-06-26T13:49:41;5.40;;;4.70;;
75554;SDS011;66087;53.126;17.960;2023-06-26T13:52:16;6.20;;;5.20;;
75554;SDS011;66087;53.126;17.960;2023-06-26T13:54:41;6.20;;;4.70;;
75554;SDS011;66087;53.126;17.960;2023-06-26T13:57:08;5.20;;;4.70;;
75554;SDS011;66087;53.126;17.960;2023-06-26T13:59:36;5.40;;;4.90;;
75554;SDS011;66087;53.126;17.960;2023-06-26T14:02:24;5.20;;;4.70;;
75554;SDS011;66087;53.126;17.960;2023-06-26T14:04:52;6.60;;;4.50;;
75554;SDS011;66087;53.126;17.960;2023-06-26T14:07:18;4.90;;;4.30;;
75554;SDS011;66087;53.126;17.960;2023-06-26T14:09:44;6.70;;;5.10;;
75554;SDS011;66087;53.126;17.960;2023-06-26T14:12:10;5.60;;;4.60;;
75554;SDS011;66087;53.126;17.960;2023-06-26T14:14:36;5.50;;;4.80;;
75554;SDS011;66087;53.126;17.960;2023-06-26T14:17:03;5.20;;;4.70;;
75554;SDS011;66087;53.126;17.960;2023-06-26T14:19:31;5.40;;;4.70;;
75554;SDS011;66087;53.126;17.960;2023-06-26T14:21:59;5.20;;;4.50;;
75554;SDS011;66087;53.126;17.960;2023-06-26T14:24:25;5.70;;;4.60;;
75554;SDS011;66087;53.126;17.960;2023-06-26T14:26:51;5.20;;;4.70;;
75554;SDS011;66087;53.126;17.960;2023-06-26T14:29:19;5.60;;;5.10;;
75554;SDS011;66087;53.126;17.960;2023-06-26T14:31:47;6.20;;;4.70;;
75554;SDS011;66087;53.126;17.960;2023-06-26T14:34:13;5.10;;;4.70;;
75554;SDS011;66087;53.126;17.960;2023-06-26T14:36:39;5.40;;;4.90;;
75554;SDS011;66087;53.126;17.960;2023-06-26T14:39:08;6.20;;;5.50;;
75554;SDS011;66087;53.126;17.960;2023-06-26T14:41:34;5.60;;;5.00;;
75554;SDS011;66087;53.126;17.960;2023-06-26T14:44:00;6.20;;;5.60;;
75554;SDS011;66087;53.126;17.960;2023-06-26T14:46:48;5.70;;;5.10;;
75554;SDS011;66087;53.126;17.960;2023-06-26T14:49:14;5.90;;;5.40;;
75554;SDS011;66087;53.126;17.960;2023-06-26T14:51:40;5.60;;;5.00;;
75554;SDS011;66087;53.126;17.960;2023-06-26T14:54:06;6.60;;;5.90;;
75554;SDS011;66087;53.126;17.960;2023-06-26T14:56:33;6.40;;;5.80;;
75554;SDS011;66087;53.126;17.960;2023-06-26T14:59:03;6.10;;;5.60;;
75554;SDS011;66087;53.126;17.960;2023-06-26T15:01:29;6.10;;;5.50;;
75554;SDS011;66087;53.126;17.960;2023-06-26T15:03:55;6.40;;;5.80;;
75554;SDS011;66087;53.126;17.960;2023-06-26T15:06:21;6.30;;;5.80;;
75554;SDS011;66087;53.126;17.960;2023-06-26T15:08:48;6.50;;;5.90;;
75554;SDS011;66087;53.126;17.960;2023-06-26T15:11:14;6.10;;;5.50;;
75554;SDS011;66087;53.126;17.960;2023-06-26T15:13:40;6.90;;;6.20;;
75554;SDS011;66087;53.126;17.960;2023-06-26T15:16:08;6.30;;;5.70;;
75554;SDS011;66087;53.126;17.960;2023-06-26T15:18:54;6.20;;;5.70;;
75554;SDS011;66087;53.126;17.960;2023-06-26T15:21:20;6.30;;;5.70;;
75554;SDS011;66087;53.126;17.960;2023-06-26T15:23:46;6.50;;;5.90;;
75554;SDS011;66087;53.126;17.960;2023-06-26T15:26:13;6.90;;;6.30;;
75554;SDS011;66087;53.126;17.960;2023-06-26T15:28:40;7.10;;;6.50;;
75554;SDS011;66087;53.126;17.960;2023-06-26T15:31:05;7.00;;;6.40;;
75554;SDS011;66087;53.126;17.960;2023-06-26T15:33:31;6.90;;;6.30;;
75554;SDS011;66087;53.126;17.960;2023-06-26T15:35:57;7.10;;;6.40;;
75554;SDS011;66087;53.126;17.960;2023-06-26T15:38:23;7.10;;;6.50;;
75554;SDS011;66087;53.126;17.960;2023-06-26T15:40:49;7.40;;;6.70;;
75554;SDS011;66087;53.126;17.960;2023-06-26T15:43:16;7.20;;;6.50;;
75554;SDS011;66087;53.126;17.960;2023-06-26T15:45:42;6.30;;;5.70;;
75554;SDS011;66087;53.126;17.960;2023-06-26T15:48:09;7.40;;;6.80;;
75554;SDS011;66087;53.126;17.960;2023-06-26T15:50:35;6.80;;;6.20;;
75554;SDS011;66087;53.126;17.960;2023-06-26T15:53:02;7.20;;;6.50;;
75554;SDS011;66087;53.126;17.960;2023-06-26T15:55:29;7.20;;;6.60;;
75554;SDS011;66087;53.126;17.960;2023-06-26T15:57:55;7.80;;;7.10;;
75554;SDS011;66087;53.126;17.960;2023-06-26T16:00:22;7.70;;;7.00;;
75554;SDS011;66087;53.126;17.960;2023-06-26T16:02:48;7.30;;;6.70;;
75554;SDS011;66087;53.126;17.960;2023-06-26T16:05:15;7.00;;;6.30;;
75554;SDS011;66087;53.126;17.960;2023-06-26T16:07:42;7.30;;;6.60;;
75554;SDS011;66087;53.126;17.960;2023-06-26T16:10:08;6.70;;;6.00;;
75554;SDS011;66087;53.126;17.960;2023-06-26T16:12:34;6.70;;;6.10;;
75554;SDS011;66087;53.126;17.960;2023-06-26T16:15:00;6.50;;;5.90;;
75554;SDS011;66087;53.126;17.960;2023-06-26T16:17:26;7.10;;;6.50;;
75554;SDS011;66087;53.126;17.960;2023-06-26T16:19:52;7.60;;;7.00;;
75554;SDS011;66087;53.126;17.960;2023-06-26T16:22:18;7.00;;;6.40;;
75554;SDS011;66087;53.126;17.960;2023-06-26T16:24:44;6.60;;;5.80;;
75554;SDS011;66087;53.126;17.960;2023-06-26T16:27:10;6.20;;;5.70;;
75554;SDS011;66087;53.126;17.960;2023-06-26T16:29:37;6.90;;;6.30;;
75554;SDS011;66087;53.126;17.960;2023-06-26T16:32:03;5.90;;;5.40;;
75554;SDS011;66087;53.126;17.960;2023-06-26T16:34:32;5.70;;;5.20;;
75554;SDS011;66087;53.126;17.960;2023-06-26T16:36:58;5.30;;;4.80;;
75554;SDS011;66087;53.126;17.960;2023-06-26T16:39:27;6.40;;;4.70;;
75554;SDS011;66087;53.126;17.960;2023-06-26T16:41:53;4.90;;;4.10;;
75554;SDS011;66087;53.126;17.960;2023-06-26T16:44:23;5.30;;;4.30;;
75554;SDS011;66087;53.126;17.960;2023-06-26T16:46:55;4.80;;;3.40;;
75554;SDS011;66087;53.126;17.960;2023-06-26T16:49:24;5.30;;;3.40;;
75554;SDS011;66087;53.126;17.960;2023-06-26T16:51:52;5.50;;;3.30;;
75554;SDS011;66087;53.126;17.960;2023-06-26T16:54:22;6.30;;;4.10;;
75554;SDS011;66087;53.126;17.960;2023-06-26T16:56:52;5.90;;;3.10;;
75554;SDS011;66087;53.126;17.960;2023-06-26T16:59:18;5.60;;;2.90;;
75554;SDS011;66087;53.126;17.960;2023-06-26T17:01:45;7.10;;;3.50;;
75554;SDS011;66087;53.126;17.960;2023-06-26T17:04:15;5.20;;;3.10;;
75554;SDS011;66087;53.126;17.960;2023-06-26T17:06:41;5.90;;;3.40;;
75554;SDS011;66087;53.126;17.960;2023-06-26T17:09:10;6.00;;;3.10;;
75554;SDS011;66087;53.126;17.960;2023-06-26T17:11:37;5.30;;;3.10;;
75554;SDS011;66087;53.126;17.960;2023-06-26T17:14:03;5.80;;;3.50;;
75554;SDS011;66087;53.126;17.960;2023-06-26T17:16:30;7.00;;;3.60;;
75554;SDS011;66087;53.126;17.960;2023-06-26T17:18:59;5.70;;;3.30;;
75554;SDS011;66087;53.126;17.960;2023-06-26T17:21:25;9.60;;;3.70;;
75554;SDS011;66087;53.126;17.960;2023-06-26T17:23:51;8.60;;;3.20;;
75554;SDS011;66087;53.126;17.960;2023-06-26T17:26:17;5.40;;;3.10;;
75554;SDS011;66087;53.126;17.960;2023-06-26T17:28:45;5.60;;;3.30;;
75554;SDS011;66087;53.126;17.960;2023-06-26T17:31:11;4.80;;;3.20;;
75554;SDS011;66087;53.126;17.960;2023-06-26T17:33:37;5.80;;;3.40;;
75554;SDS011;66087;53.126;17.960;2023-06-26T17:36:03;8.40;;;3.40;;
75554;SDS011;66087;53.126;17.960;2023-06-26T17:38:30;5.70;;;3.10;;
75554;SDS011;66087;53.126;17.960;2023-06-26T17:40:56;9.40;;;3.40;;
75554;SDS011;66087;53.126;17.960;2023-06-26T17:43:22;5.30;;;3.50;;
75554;SDS011;66087;53.126;17.960;2023-06-26T17:45:49;6.10;;;3.50;;
75554;SDS011;66087;53.126;17.960;2023-06-26T17:48:16;5.20;;;2.80;;
75554;SDS011;66087;53.126;17.960;2023-06-26T17:50:42;5.60;;;3.30;;
75554;SDS011;66087;53.126;17.960;2023-06-26T17:53:08;5.80;;;3.40;;
75554;SDS011;66087;53.126;17.960;2023-06-26T17:55:37;5.40;;;3.30;;
75554;SDS011;66087;53.126;17.960;2023-06-26T17:58:04;6.20;;;3.70;;
75554;SDS011;66087;53.126;17.960;2023-06-26T18:00:30;6.20;;;3.50;;
75554;SDS011;66087;53.126;17.960;2023-06-26T18:02:56;7.00;;;3.60;;
75554;SDS011;66087;53.126;17.960;2023-06-26T18:05:22;9.40;;;3.40;;
75554;SDS011;66087;53.126;17.960;2023-06-26T18:07:49;6.40;;;3.40;;
75554;SDS011;66087;53.126;17.960;2023-06-26T18:10:15;6.20;;;3.60;;
75554;SDS011;66087;53.126;17.960;2023-06-26T18:12:41;6.90;;;3.20;;
75554;SDS011;66087;53.126;17.960;2023-06-26T18:15:07;6.90;;;3.40;;
75554;SDS011;66087;53.126;17.960;2023-06-26T18:17:33;5.60;;;3.00;;
75554;SDS011;66087;53.126;17.960;2023-06-26T18:20:01;5.00;;;3.10;;
75554;SDS011;66087;53.126;17.960;2023-06-26T18:22:28;6.30;;;3.70;;
75554;SDS011;66087;53.126;17.960;2023-06-26T18:25:16;5.70;;;3.00;;
75554;SDS011;66087;53.126;17.960;2023-06-26T18:27:43;7.10;;;3.40;;
75554;SDS011;66087;53.126;17.960;2023-06-26T18:30:09;11.60;;;3.70;;
75554;SDS011;66087;53.126;17.960;2023-06-26T18:32:37;7.30;;;3.10;;
75554;SDS011;66087;53.126;17.960;2023-06-26T18:35:04;6.90;;;3.70;;
75554;SDS011;66087;53.126;17.960;2023-06-26T18:37:31;5.70;;;3.70;;
75554;SDS011;66087;53.126;17.960;2023-06-26T18:39:57;6.70;;;4.00;;
75554;SDS011;66087;53.126;17.960;2023-06-26T18:42:23;7.90;;;3.50;;
75554;SDS011;66087;53.126;17.960;2023-06-26T18:44:49;7.60;;;3.90;;
75554;SDS011;66087;53.126;17.960;2023-06-26T18:47:19;5.90;;;3.60;;
75554;SDS011;66087;53.126;17.960;2023-06-26T18:49:45;8.70;;;3.50;;
75554;SDS011;66087;53.126;17.960;2023-06-26T18:52:12;8.70;;;3.80;;
75554;SDS011;66087;53.126;17.960;2023-06-26T18:54:38;6.20;;;3.60;;
75554;SDS011;66087;53.126;17.960;2023-06-26T18:57:04;6.60;;;3.50;;
75554;SDS011;66087;53.126;17.960;2023-06-26T18:59:30;6.60;;;4.10;;
75554;SDS011;66087;53.126;17.960;2023-06-26T19:01:56;5.90;;;3.40;;
75554;SDS011;66087;53.126;17.960;2023-06-26T19:04:22;6.40;;;3.50;;
75554;SDS011;66087;53.126;17.960;2023-06-26T19:06:49;6.40;;;3.50;;
75554;SDS011;66087;53.126;17.960;2023-06-26T19:09:17;9.00;;;3.60;;
75554;SDS011;66087;53.126;17.960;2023-06-26T19:11:49;7.40;;;3.90;;
75554;SDS011;66087;53.126;17.960;2023-06-26T19:14:15;7.20;;;3.90;;
75554;SDS011;66087;53.126;17.960;2023-06-26T19:16:41;9.50;;;4.60;;
75554;SDS011;66087;53.126;17.960;2023-06-26T19:19:07;7.30;;;3.70;;
75554;SDS011;66087;53.126;17.960;2023-06-26T19:21:36;7.10;;;4.00;;
75554;SDS011;66087;53.126;17.960;2023-06-26T19:24:02;7.80;;;4.50;;
75554;SDS011;66087;53.126;17.960;2023-06-26T19:26:28;6.80;;;4.10;;
75554;SDS011;66087;53.126;17.960;2023-06-26T19:28:55;7.60;;;4.40;;
75554;SDS011;66087;53.126;17.960;2023-06-26T19:31:21;6.50;;;3.60;;
75554;SDS011;66087;53.126;17.960;2023-06-26T19:33:47;7.70;;;4.30;;
75554;SDS011;66087;53.126;17.960;2023-06-26T19:36:13;7.00;;;4.10;;
75554;SDS011;66087;53.126;17.960;2023-06-26T19:38:40;8.20;;;4.20;;
75554;SDS011;66087;53.126;17.960;2023-06-26T19:41:06;7.20;;;4.30;;
75554;SDS011;66087;53.126;17.960;2023-06-26T19:43:32;6.90;;;4.30;;
75554;SDS011;66087;53.126;17.960;2023-06-26T19:45:59;7.80;;;4.60;;
75554;SDS011;66087;53.126;17.960;2023-06-26T19:48:26;8.30;;;4.20;;
75554;SDS011;66087;53.126;17.960;2023-06-26T19:50:55;6.70;;;3.80;;
75554;SDS011;66087;53.126;17.960;2023-06-26T19:53:25;9.60;;;5.10;;
75554;SDS011;66087;53.126;17.960;2023-06-26T19:55:53;10.50;;;5.70;;
75554;SDS011;66087;53.126;17.960;2023-06-26T19:58:19;8.00;;;5.40;;
75554;SDS011;66087;53.126;17.960;2023-06-26T20:00:45;9.00;;;6.00;;
75554;SDS011;66087;53.126;17.960;2023-06-26T20:03:12;9.00;;;4.80;;
75554;SDS011;66087;53.126;17.960;2023-06-26T20:05:38;8.50;;;5.20;;
75554;SDS011;66087;53.126;17.960;2023-06-26T20:08:04;9.00;;;4.70;;
75554;SDS011;66087;53.126;17.960;2023-06-26T20:10:30;8.40;;;4.60;;
75554;SDS011;66087;53.126;17.960;2023-06-26T20:13:16;7.00;;;3.50;;
75554;SDS011;66087;53.126;17.960;2023-06-26T20:15:42;8.20;;;3.40;;
75554;SDS011;66087;53.126;17.960;2023-06-26T20:18:10;7.30;;;3.90;;
75554;SDS011;66087;53.126;17.960;2023-06-26T20:20:36;6.20;;;3.10;;
75554;SDS011;66087;53.126;17.960;2023-06-26T20:23:02;7.30;;;4.00;;
75554;SDS011;66087;53.126;17.960;2023-06-26T20:25:28;6.60;;;3.50;;
75554;SDS011;66087;53.126;17.960;2023-06-26T20:27:55;7.10;;;3.70;;
75554;SDS011;66087;53.126;17.960;2023-06-26T20:30:22;5.70;;;3.10;;
75554;SDS011;66087;53.126;17.960;2023-06-26T20:33:09;12.10;;;4.40;;
75554;SDS011;66087;53.126;17.960;2023-06-26T20:35:36;11.60;;;4.60;;
75554;SDS011;66087;53.126;17.960;2023-06-26T20:38:03;11.60;;;4.90;;
75554;SDS011;66087;53.126;17.960;2023-06-26T20:40:29;8.50;;;4.60;;
75554;SDS011;66087;53.126;17.960;2023-06-26T20:42:55;6.70;;;4.00;;
75554;SDS011;66087;53.126;17.960;2023-06-26T20:45:43;7.10;;;4.00;;
75554;SDS011;66087;53.126;17.960;2023-06-26T20:48:12;7.50;;;4.40;;
75554;SDS011;66087;53.126;17.960;2023-06-26T20:50:38;8.80;;;4.50;;
75554;SDS011;66087;53.126;17.960;2023-06-26T20:53:04;10.30;;;4.80;;
75554;SDS011;66087;53.126;17.960;2023-06-26T20:55:32;6.80;;;3.60;;
75554;SDS011;66087;53.126;17.960;2023-06-26T20:57:58;8.00;;;3.60;;
75554;SDS011;66087;53.126;17.960;2023-06-26T21:00:26;7.90;;;4.10;;
75554;SDS011;66087;53.126;17.960;2023-06-26T21:02:52;6.30;;;3.50;;
75554;SDS011;66087;53.126;17.960;2023-06-26T21:05:18;6.30;;;2.90;;
75554;SDS011;66087;53.126;17.960;2023-06-26T21:07:44;7.30;;;3.20;;
75554;SDS011;66087;53.126;17.960;2023-06-26T21:10:37;6.50;;;3.40;;
75554;SDS011;66087;53.126;17.960;2023-06-26T21:13:05;6.60;;;4.10;;
75554;SDS011;66087;53.126;17.960;2023-06-26T21:15:33;6.80;;;3.80;;
75554;SDS011;66087;53.126;17.960;2023-06-26T21:18:02;6.00;;;3.60;;
75554;SDS011;66087;53.126;17.960;2023-06-26T21:20:29;6.50;;;3.50;;
75554;SDS011;66087;53.126;17.960;2023-06-26T21:22:56;6.90;;;4.00;;
75554;SDS011;66087;53.126;17.960;2023-06-26T21:25:22;5.70;;;4.20;;
75554;SDS011;66087;53.126;17.960;2023-06-26T21:27:48;6.80;;;3.70;;
75554;SDS011;66087;53.126;17.960;2023-06-26T21:30:14;7.90;;;4.00;;
75554;SDS011;66087;53.126;17.960;2023-06-26T21:32:40;6.30;;;3.70;;
75554;SDS011;66087;53.126;17.960;2023-06-26T21:35:06;8.20;;;4.00;;
75554;SDS011;66087;53.126;17.960;2023-06-26T21:37:33;7.00;;;4.00;;
75554;SDS011;66087;53.126;17.960;2023-06-26T21:39:59;6.40;;;4.00;;
75554;SDS011;66087;53.126;17.960;2023-06-26T21:42:26;6.70;;;4.00;;
75554;SDS011;66087;53.126;17.960;2023-06-26T21:44:52;5.50;;;3.20;;
75554;SDS011;66087;53.126;17.960;2023-06-26T21:47:19;6.50;;;4.40;;
75554;SDS011;66087;53.126;17.960;2023-06-26T21:49:45;7.80;;;4.50;;
75554;SDS011;66087;53.126;17.960;2023-06-26T21:52:11;6.50;;;3.80;;
75554;SDS011;66087;53.126;17.960;2023-06-26T21:54:39;6.40;;;3.80;;
75554;SDS011;66087;53.126;17.960;2023-06-26T21:57:08;5.80;;;3.90;;
75554;SDS011;66087;53.126;17.960;2023-06-26T21:59:55;7.70;;;3.90;;
75554;SDS011;66087;53.126;17.960;2023-06-26T22:02:21;7.80;;;3.80;;
75554;SDS011;66087;53.126;17.960;2023-06-26T22:04:49;7.50;;;4.30;;
75554;SDS011;66087;53.126;17.960;2023-06-26T22:07:18;7.20;;;4.50;;
75554;SDS011;66087;53.126;17.960;2023-06-26T22:09:44;6.80;;;4.40;;
75554;SDS011;66087;53.126;17.960;2023-06-26T22:12:11;8.10;;;4.70;;
75554;SDS011;66087;53.126;17.960;2023-06-26T22:14:38;8.50;;;5.10;;
75554;SDS011;66087;53.126;17.960;2023-06-26T22:17:04;8.60;;;4.90;;
75554;SDS011;66087;53.126;17.960;2023-06-26T22:19:30;8.30;;;4.80;;
75554;SDS011;66087;53.126;17.960;2023-06-26T22:21:57;9.00;;;5.10;;
75554;SDS011;66087;53.126;17.960;2023-06-26T22:24:23;8.30;;;4.40;;
75554;SDS011;66087;53.126;17.960;2023-06-26T22:26:49;6.80;;;4.80;;
75554;SDS011;66087;53.126;17.960;2023-06-26T22:29:15;7.70;;;5.10;;
75554;SDS011;66087;53.126;17.960;2023-06-26T22:31:41;8.00;;;4.50;;
75554;SDS011;66087;53.126;17.960;2023-06-26T22:34:07;7.50;;;4.30;;
75554;SDS011;66087;53.126;17.960;2023-06-26T22:36:53;8.50;;;5.20;;
75554;SDS011;66087;53.126;17.960;2023-06-26T22:39:22;7.60;;;4.40;;
75554;SDS011;66087;53.126;17.960;2023-06-26T22:41:50;7.20;;;4.20;;
75554;SDS011;66087;53.126;17.960;2023-06-26T22:44:16;6.80;;;4.50;;
75554;SDS011;66087;53.126;17.960;2023-06-26T22:46:43;7.30;;;4.60;;
75554;SDS011;66087;53.126;17.960;2023-06-26T22:49:10;8.00;;;4.20;;
75554;SDS011;66087;53.126;17.960;2023-06-26T22:51:38;8.60;;;5.20;;
75554;SDS011;66087;53.126;17.960;2023-06-26T22:54:05;11.20;;;5.90;;
75554;SDS011;66087;53.126;17.960;2023-06-26T22:56:32;9.20;;;4.60;;
75554;SDS011;66087;53.126;17.960;2023-06-26T22:59:04;7.40;;;4.20;;
75554;SDS011;66087;53.126;17.960;2023-06-26T23:01:30;8.70;;;5.20;;
75554;SDS011;66087;53.126;17.960;2023-06-26T23:03:56;8.80;;;4.80;;
75554;SDS011;66087;53.126;17.960;2023-06-26T23:06:21;7.20;;;4.90;;
75554;SDS011;66087;53.126;17.960;2023-06-26T23:08:48;8.90;;;5.20;;
75554;SDS011;66087;53.126;17.960;2023-06-26T23:11:18;7.70;;;4.90;;
75554;SDS011;66087;53.126;17.960;2023-06-26T23:13:45;8.50;;;5.60;;
75554;SDS011;66087;53.126;17.960;2023-06-26T23:16:11;9.40;;;6.10;;
75554;SDS011;66087;53.126;17.960;2023-06-26T23:18:39;9.70;;;6.50;;
75554;SDS011;66087;53.126;17.960;2023-06-26T23:21:08;8.70;;;6.10;;
75554;SDS011;66087;53.126;17.960;2023-06-26T23:23:34;8.50;;;5.70;;
75554;SDS011;66087;53.126;17.960;2023-06-26T23:26:03;8.20;;;5.20;;
75554;SDS011;66087;53.126;17.960;2023-06-26T23:28:29;8.60;;;6.10;;
75554;SDS011;66087;53.126;17.960;2023-06-26T23:30:58;9.10;;;6.50;;
75554;SDS011;66087;53.126;17.960;2023-06-26T23:33:24;8.00;;;5.40;;
75554;SDS011;66087;53.126;17.960;2023-06-26T23:35:55;8.80;;;6.10;;
75554;SDS011;66087;53.126;17.960;2023-06-26T23:38:21;10.20;;;6.90;;
75554;SDS011;66087;53.126;17.960;2023-06-26T23:40:47;10.20;;;7.10;;
75554;SDS011;66087;53.126;17.960;2023-06-26T23:43:15;10.40;;;7.60;;
75554;SDS011;66087;53.126;17.960;2023-06-26T23:45:42;9.90;;;6.90;;
75554;SDS011;66087;53.126;17.960;2023-06-26T23:48:11;14.90;;;9.20;;
75554;SDS011;66087;53.126;17.960;2023-06-26T23:50:39;13.10;;;8.90;;
75554;SDS011;66087;53.126;17.960;2023-06-26T23:53:05;10.10;;;7.40;;
75554;SDS011;66087;53.126;17.960;2023-06-26T23:55:31;11.70;;;8.10;;
75554;SDS011;66087;53.126;17.960;2023-06-26T23:57:57;10.30;;;6.30;;
